Time;durP1;ratioP1;P1;durP2;ratioP2;P2;SDS_P1;SDS_P2;PMS_P1;PMS_P2;Temp;Humidity;BMP_temperature;BMP_pressure;BME280_temperature;BME280_humidity;BME280_pressure;Samples;Min_cycle;Max_cycle;Signal;HPM_P1;HPM_P2
2021/12/15 00:02:14;;;;;;;59.40;22.70;;;;;;;19.91;45.82;102897.81;5050520;28;20037;-69
2021/12/15 00:04:40;;;;;;;60.27;23.07;;;;;;;20.83;44.63;102898.75;5070208;28;20021;-69
2021/12/15 00:07:06;;;;;;;54.13;23.10;;;;;;;20.34;45.04;102899.69;5040981;28;20167;-69
2021/12/15 00:09:31;;;;;;;54.70;22.93;;;;;;;19.61;47.68;102902.66;5062316;28;20036;-69
2021/12/15 00:11:57;;;;;;;53.43;22.40;;;;;;;20.75;44.16;102911.34;5052526;28;20109;-68
2021/12/15 00:14:22;;;;;;;52.23;22.50;;;;;;;20.16;45.97;102901.78;5052104;28;20036;-69
2021/12/15 00:16:49;;;;;;;58.00;23.73;;;;;;;19.95;46.50;102907.47;5069055;28;20043;-68
2021/12/15 00:19:16;;;;;;;55.47;22.13;;;;;;;19.94;46.29;102897.75;5043060;28;20086;-69
2021/12/15 00:21:42;;;;;;;52.63;22.40;;;;;;;21.19;43.70;102906.84;5046529;28;20052;-68
2021/12/15 00:24:08;;;;;;;52.53;21.97;;;;;;;20.75;44.86;102903.38;5051447;28;20028;-68
2021/12/15 00:26:35;;;;;;;51.47;23.50;;;;;;;21.08;43.47;102902.69;5069550;28;20050;-69
2021/12/15 00:29:03;;;;;;;59.00;24.50;;;;;;;21.22;43.19;102894.41;5064612;28;20037;-69
2021/12/15 00:31:32;;;;;;;52.33;22.47;;;;;;;21.36;42.55;102892.31;5047797;28;20113;-68
2021/12/15 00:33:57;;;;;;;51.37;21.53;;;;;;;20.03;46.14;102894.94;5051371;28;20040;-68
2021/12/15 00:36:23;;;;;;;55.63;23.33;;;;;;;19.49;45.96;102901.06;5051684;28;20036;-69
2021/12/15 00:38:48;;;;;;;54.43;22.77;;;;;;;21.01;44.11;102891.31;5046600;28;20036;-68
2021/12/15 00:41:14;;;;;;;50.73;22.63;;;;;;;19.64;46.75;102897.31;5048119;28;20040;-69
2021/12/15 00:43:39;;;;;;;59.97;24.37;;;;;;;20.77;44.38;102900.66;5069422;28;20234;-68
2021/12/15 00:46:06;;;;;;;56.70;23.47;;;;;;;20.31;45.89;102899.75;5049431;28;20443;-69
2021/12/15 00:48:32;;;;;;;51.70;22.63;;;;;;;20.13;46.08;102896.53;5047334;28;20036;-69
2021/12/15 00:50:57;;;;;;;53.43;22.40;;;;;;;20.87;43.86;102893.38;5042326;28;20079;-68
2021/12/15 00:53:23;;;;;;;55.83;21.57;;;;;;;20.27;44.90;102898.06;5050919;28;20036;-69
2021/12/15 00:55:48;;;;;;;52.70;22.10;;;;;;;20.89;43.25;102897.75;5051658;28;20064;-68
2021/12/15 00:58:14;;;;;;;55.50;21.63;;;;;;;20.68;43.66;102893.78;5048097;28;20024;-68
2021/12/15 01:00:43;;;;;;;48.53;21.40;;;;;;;20.47;43.92;102895.91;5042285;28;20445;-69
2021/12/15 01:03:09;;;;;;;52.17;23.13;;;;;;;20.02;46.34;102887.88;5069073;28;20542;-69
2021/12/15 01:05:42;;;;;;;49.87;22.63;;;;;;;19.88;46.62;102895.19;5050456;28;20074;-68
2021/12/15 01:08:10;;;;;;;51.22;20.42;;;;;;;19.94;46.26;102900.41;5064318;28;20043;-68
2021/12/15 01:11:04;;;;;;;56.03;23.77;;;;;;;20.42;46.06;102902.22;5069931;28;20093;-68
2021/12/15 01:21:51;;;;;;;49.60;22.07;;;;;;;19.59;47.06;102893.84;5068280;28;20055;-68
2021/12/15 01:24:16;;;;;;;54.87;23.00;;;;;;;19.88;46.61;102890.78;5062828;28;20040;-69
2021/12/15 01:26:42;;;;;;;49.47;21.47;;;;;;;20.47;44.63;102895.91;5051381;28;20472;-69
2021/12/15 01:29:08;;;;;;;50.47;21.87;;;;;;;20.78;43.87;102895.31;5068359;28;20123;-69
2021/12/15 01:31:33;;;;;;;55.87;22.30;;;;;;;21.18;42.95;102894.50;5048471;28;20519;-68
2021/12/15 01:33:59;;;;;;;51.40;21.90;;;;;;;20.54;43.99;102896.66;5051155;28;20060;-69
2021/12/15 01:36:25;;;;;;;52.83;21.90;;;;;;;18.92;49.20;102909.81;5049591;28;20028;-69
2021/12/15 01:38:50;;;;;;;53.87;21.83;;;;;;;20.05;45.21;102893.13;5045229;28;20067;-68
2021/12/15 01:41:22;;;;;;;55.97;22.87;;;;;;;20.08;45.75;102903.69;5046652;28;20032;-69
2021/12/15 01:46:54;;;;;;;49.83;21.83;;;;;;;21.30;42.58;102903.09;5067978;28;20048;-69
2021/12/15 01:49:33;;;;;;;59.00;23.73;;;;;;;21.54;41.86;102907.00;5043651;28;20056;-69
2021/12/15 01:52:04;;;;;;;53.13;21.43;;;;;;;19.29;47.47;102915.47;5040123;28;20055;-69
2021/12/15 01:54:32;;;;;;;53.07;22.80;;;;;;;20.44;45.57;102917.22;5068203;28;20456;-69
2021/12/15 01:56:58;;;;;;;51.17;20.90;;;;;;;21.04;43.51;102907.19;5049935;28;20027;-69
2021/12/15 01:59:25;;;;;;;53.27;21.63;;;;;;;20.21;44.84;102914.97;5051451;28;20032;-69
2021/12/15 02:01:51;;;;;;;45.60;21.03;;;;;;;19.87;46.24;102922.66;5066352;28;20103;-68
2021/12/15 02:04:19;;;;;;;51.73;22.13;;;;;;;21.52;41.79;102915.00;5040735;28;20441;-68
2021/12/15 02:06:45;;;;;;;54.13;22.10;;;;;;;20.60;44.06;102922.25;5046314;28;20161;-69
2021/12/15 02:09:15;;;;;;;45.03;21.00;;;;;;;19.74;46.22;102927.22;5046058;28;20040;-69
2021/12/15 02:11:40;;;;;;;44.90;19.93;;;;;;;19.89;46.60;102931.44;5048267;28;20068;-69
2021/12/15 02:14:06;;;;;;;49.40;21.43;;;;;;;20.54;43.96;102925.00;5063008;28;20029;-68
2021/12/15 02:16:32;;;;;;;52.77;20.27;;;;;;;21.02;42.95;102930.28;5050026;28;20388;-68
2021/12/15 02:18:57;;;;;;;49.77;20.60;;;;;;;18.86;48.61;102928.38;5039375;28;20025;-69
2021/12/15 02:21:25;;;;;;;48.70;20.33;;;;;;;19.79;45.50;102928.88;5047547;28;20040;-69
2021/12/15 02:23:55;;;;;;;50.80;20.63;;;;;;;20.40;45.28;102931.47;5069242;28;20040;-69
2021/12/15 02:26:23;;;;;;;47.20;19.63;;;;;;;20.28;44.79;102931.69;5064503;28;20032;-69
2021/12/15 02:28:52;;;;;;;46.20;20.77;;;;;;;20.05;45.20;102935.59;5063001;28;20024;-69
2021/12/15 02:31:38;;;;;;;51.00;21.97;;;;;;;20.00;46.35;102934.78;5062639;28;20036;-69
2021/12/15 02:34:31;;;;;;;52.30;21.33;;;;;;;19.66;47.67;102933.53;5065076;28;20032;-69
2021/12/15 02:37:17;;;;;;;48.43;21.43;;;;;;;21.16;43.78;102930.88;5041109;28;20556;-69
2021/12/15 02:39:49;;;;;;;53.00;21.30;;;;;;;20.23;44.71;102928.22;5048542;28;20190;-69
2021/12/15 02:42:16;;;;;;;51.85;21.55;;;;;;;19.60;45.88;102927.44;5046307;28;20373;-69
2021/12/15 02:44:43;;;;;;;53.80;20.37;;;;;;;20.09;45.25;102931.13;5047862;28;20056;-69
2021/12/15 02:47:15;;;;;;;44.77;19.57;;;;;;;20.86;44.17;102928.84;5046102;28;20025;-69
2021/12/15 02:49:41;;;;;;;55.77;20.87;;;;;;;20.35;45.03;102935.97;5043346;28;20033;-69
2021/12/15 02:52:07;;;;;;;47.53;20.50;;;;;;;20.44;44.73;102941.13;5046240;28;20443;-69
2021/12/15 02:54:32;;;;;;;49.57;20.70;;;;;;;20.06;45.15;102926.75;5061255;28;20035;-69
2021/12/15 02:57:05;;;;;;;47.50;20.50;;;;;;;19.03;48.24;102936.13;5045560;28;20119;-69
2021/12/15 02:59:40;;;;;;;52.28;20.48;;;;;;;19.70;48.09;102923.75;5065026;28;20108;-68
2021/12/15 03:02:24;;;;;;;47.93;20.57;;;;;;;20.92;42.95;102924.28;5049280;28;20404;-68
2021/12/15 03:05:04;;;;;;;45.17;19.03;;;;;;;20.90;43.58;102927.91;5046481;28;20024;-69
2021/12/15 03:15:34;;;;;;;50.20;19.90;;;;;;;20.78;44.05;102936.97;5069364;28;20086;-68
2021/12/15 03:18:21;;;;;;;45.70;19.63;;;;;;;20.41;44.35;102930.53;5045507;28;20106;-71
2021/12/15 03:20:48;;;;;;;47.20;20.37;;;;;;;19.60;46.36;102927.44;5048970;28;20032;-71
2021/12/15 03:23:20;;;;;;;44.77;19.53;;;;;;;21.31;42.80;102936.78;5050467;28;20793;-71
2021/12/15 03:25:46;;;;;;;53.15;18.38;;;;;;;20.87;42.68;102935.91;5048897;28;20033;-70
2021/12/15 03:36:38;;;;;;;52.73;19.37;;;;;;;20.36;44.86;102935.09;5071349;28;20040;-71
2021/12/15 03:39:07;;;;;;;47.77;19.17;;;;;;;21.49;41.78;102930.16;5062286;28;20129;-71
2021/12/15 03:41:33;;;;;;;48.10;19.20;;;;;;;20.76;43.40;102929.03;5053038;28;20145;-71
2021/12/15 03:44:00;;;;;;;51.70;20.87;;;;;;;21.44;42.14;102919.59;5049767;28;20115;-70
2021/12/15 03:46:26;;;;;;;48.00;20.00;;;;;;;20.42;44.24;102932.28;5052914;28;20028;-71
2021/12/15 03:48:51;;;;;;;45.60;19.93;;;;;;;21.15;43.18;102942.41;5066205;28;20431;-71
2021/12/15 03:51:17;;;;;;;51.87;19.83;;;;;;;20.22;44.52;102937.09;5070307;28;20031;-71
2021/12/15 03:53:43;;;;;;;42.20;18.50;;;;;;;20.89;43.99;102942.06;5048237;28;20491;-71
2021/12/15 03:56:12;;;;;;;47.67;19.97;;;;;;;19.74;46.36;102941.38;5045781;28;20017;-71
2021/12/15 03:58:38;;;;;;;48.43;19.20;;;;;;;19.25;47.95;102950.88;5045082;28;20485;-68
2021/12/15 04:01:08;;;;;;;52.07;20.07;;;;;;;21.08;44.01;102951.41;5046497;28;20049;-69
2021/12/15 04:03:38;;;;;;;51.87;20.23;;;;;;;20.30;45.43;102943.13;5049066;28;20060;-69
2021/12/15 04:06:07;;;;;;;46.53;18.90;;;;;;;21.35;42.12;102949.09;5049497;28;20205;-68
2021/12/15 04:08:34;;;;;;;50.97;19.63;;;;;;;22.30;40.79;102940.63;5039290;28;20059;-69
2021/12/15 04:11:03;;;;;;;42.17;19.27;;;;;;;20.68;43.23;102962.84;5045247;28;20052;-69
2021/12/15 04:13:28;;;;;;;45.13;18.33;;;;;;;21.36;42.95;102956.13;5046913;28;20419;-68
2021/12/15 04:15:57;;;;;;;48.50;19.37;;;;;;;20.99;43.71;102951.59;5070884;28;20039;-69
2021/12/15 04:18:25;;;;;;;49.67;20.53;;;;;;;21.05;42.81;102951.50;5043304;28;20326;-69
2021/12/15 04:20:52;;;;;;;45.40;20.27;;;;;;;20.77;43.40;102962.69;5047101;28;20029;-69
2021/12/15 04:23:19;;;;;;;43.63;19.53;;;;;;;21.11;42.73;102959.31;5032751;28;20123;-69
2021/12/15 04:25:47;;;;;;;46.93;19.47;;;;;;;21.30;42.26;102961.59;5028068;28;20037;-68
2021/12/15 04:28:24;;;;;;;46.83;20.43;;;;;;;22.07;40.23;102958.97;5044343;28;20104;-69
2021/12/15 04:30:53;;;;;;;46.70;18.90;;;;;;;21.62;41.79;102957.38;5016914;28;20064;-69
2021/12/15 04:33:45;;;;;;;49.70;20.03;;;;;;;20.81;44.35;102960.81;5030271;28;20100;-69
2021/12/15 04:36:14;;;;;;;44.87;18.37;;;;;;;21.11;42.66;102961.97;5032022;28;20021;-68
2021/12/15 04:38:42;;;;;;;46.07;18.47;;;;;;;20.67;44.45;102961.06;5025451;28;20025;-69
2021/12/15 04:41:16;;;;;;;48.03;20.23;;;;;;;19.11;47.19;102966.97;5032953;28;20123;-69
2021/12/15 04:43:42;;;;;;;48.10;19.23;;;;;;;20.13;45.08;102954.94;5044648;28;20393;-69
2021/12/15 04:46:10;;;;;;;47.13;20.30;;;;;;;19.98;47.14;102956.03;5049255;28;20408;-69
2021/12/15 04:48:38;;;;;;;52.67;19.80;;;;;;;20.09;44.48;102963.84;5041399;28;20017;-68
2021/12/15 04:51:05;;;;;;;45.70;20.17;;;;;;;21.17;43.31;102964.53;5032726;28;20036;-69
2021/12/15 04:53:31;;;;;;;46.50;19.07;;;;;;;21.14;43.20;102967.25;5033006;28;20099;-69
2021/12/15 04:55:56;;;;;;;51.77;20.67;;;;;;;20.75;44.50;102975.09;5048226;28;20060;-69
2021/12/15 04:58:22;;;;;;;50.40;19.50;;;;;;;21.13;43.23;102970.81;5032407;28;20410;-68
2021/12/15 05:00:56;;;;;;;51.87;20.17;;;;;;;20.34;45.19;102963.44;5032244;28;20021;-69
2021/12/15 05:03:22;;;;;;;43.67;18.30;;;;;;;21.37;43.10;102968.53;5027990;28;20374;-69
2021/12/15 05:05:48;;;;;;;52.73;19.50;;;;;;;21.02;43.02;102967.50;5030280;28;20067;-70
2021/12/15 05:08:14;;;;;;;53.83;20.93;;;;;;;20.31;44.19;102963.50;5031608;28;20405;-69
2021/12/15 05:10:40;;;;;;;54.83;19.57;;;;;;;21.08;43.75;102967.38;5046081;28;20033;-69
2021/12/15 05:13:07;;;;;;;50.97;20.53;;;;;;;20.77;43.89;102973.31;5029281;28;20129;-69
2021/12/15 05:15:35;;;;;;;51.03;20.23;;;;;;;20.81;43.40;102977.66;5050312;28;20040;-69
2021/12/15 05:18:00;;;;;;;49.10;18.13;;;;;;;21.12;44.23;102978.84;5022931;28;20044;-68
2021/12/15 05:20:26;;;;;;;54.33;20.33;;;;;;;21.12;43.32;102968.19;5031465;28;20040;-68
2021/12/15 05:22:53;;;;;;;50.20;20.23;;;;;;;21.26;42.73;102970.56;5043463;28;20069;-68
2021/12/15 05:25:19;;;;;;;50.83;19.53;;;;;;;22.13;40.74;102959.72;5049771;28;20503;-68
2021/12/15 05:27:45;;;;;;;50.43;19.57;;;;;;;20.73;44.29;102965.41;5038199;28;20033;-69
2021/12/15 05:30:13;;;;;;;47.00;18.63;;;;;;;21.45;42.92;102982.53;5045159;28;20025;-69
2021/12/15 05:32:39;;;;;;;50.97;20.57;;;;;;;21.30;43.01;102970.44;5043833;28;20025;-69
2021/12/15 05:35:06;;;;;;;44.93;19.33;;;;;;;21.47;42.80;102985.16;5047753;28;20044;-68
2021/12/15 05:37:32;;;;;;;46.00;19.13;;;;;;;22.13;41.54;102970.34;5049237;28;20035;-69
2021/12/15 05:39:58;;;;;;;53.83;19.70;;;;;;;21.81;41.27;102974.66;5040386;28;20108;-69
2021/12/15 05:42:27;;;;;;;46.83;19.00;;;;;;;21.01;43.11;102973.72;5043538;28;20037;-69
2021/12/15 05:44:53;;;;;;;53.20;20.00;;;;;;;21.35;43.01;102981.00;5046359;28;20025;-69
2021/12/15 05:47:19;;;;;;;51.73;19.80;;;;;;;20.06;45.45;102976.28;5045874;28;20033;-69
2021/12/15 05:49:46;;;;;;;58.67;20.70;;;;;;;21.66;42.61;102969.69;5043074;28;20047;-69
2021/12/15 05:52:11;;;;;;;54.93;19.70;;;;;;;21.25;43.10;102979.44;5047442;28;20120;-69
2021/12/15 05:54:37;;;;;;;55.60;19.10;;;;;;;21.10;43.89;102981.53;5048936;28;20116;-69
2021/12/15 05:57:03;;;;;;;53.50;20.47;;;;;;;21.30;43.41;102977.56;5045523;28;20123;-69
2021/12/15 05:59:29;;;;;;;56.03;20.43;;;;;;;20.98;43.79;102976.47;5044110;28;20565;-69
2021/12/15 06:01:54;;;;;;;55.20;18.67;;;;;;;20.98;43.72;102976.47;5035191;28;20120;-68
2021/12/15 06:04:20;;;;;;;51.87;19.03;;;;;;;21.83;41.96;102975.50;5040332;28;20401;-69
2021/12/15 06:06:46;;;;;;;55.63;19.93;;;;;;;21.29;42.55;102982.00;5048160;28;20025;-69
2021/12/15 06:09:12;;;;;;;53.03;18.10;;;;;;;21.61;42.49;102988.44;5043966;28;20048;-69
2021/12/15 06:11:39;;;;;;;51.37;18.10;;;;;;;20.84;43.74;102985.56;5043350;28;20032;-68
2021/12/15 06:14:06;;;;;;;52.80;18.70;;;;;;;21.27;43.06;102982.97;5044430;28;20021;-69
2021/12/15 06:16:33;;;;;;;55.37;18.83;;;;;;;21.47;42.85;102986.06;5046559;28;20481;-69
2021/12/15 06:19:00;;;;;;;50.63;18.70;;;;;;;21.58;42.69;102987.63;5045137;28;20033;-69
2021/12/15 06:21:25;;;;;;;55.40;18.90;;;;;;;21.49;42.52;102999.31;5052535;28;20076;-71
2021/12/15 06:23:51;;;;;;;46.83;18.60;;;;;;;20.79;43.25;102995.41;5049607;28;20516;-70
2021/12/15 06:26:18;;;;;;;48.73;18.17;;;;;;;21.68;42.66;102994.50;5049353;28;20017;-69
2021/12/15 06:28:46;;;;;;;54.30;19.13;;;;;;;20.50;45.13;102993.25;5067256;28;20107;-69
2021/12/15 06:31:15;;;;;;;45.43;17.10;;;;;;;21.27;43.79;102994.47;5064394;28;20076;-69
2021/12/15 06:33:42;;;;;;;56.13;18.43;;;;;;;21.51;42.90;103003.72;5048817;28;20503;-70
2021/12/15 06:36:09;;;;;;;55.17;20.23;;;;;;;20.92;44.21;103006.66;5048872;28;20757;-69
2021/12/15 06:38:42;;;;;;;53.80;19.03;;;;;;;21.08;42.79;102993.97;5046682;28;20032;-69
2021/12/15 06:41:09;;;;;;;49.83;18.10;;;;;;;21.65;42.23;102999.88;5070130;28;20035;-69
2021/12/15 06:43:37;;;;;;;64.10;20.07;;;;;;;21.26;43.03;103005.13;5055158;28;20507;-69
2021/12/15 06:59:26;;;;;;;50.00;19.00;;;;;;;20.93;43.95;103023.50;5063580;28;20046;-70
2021/12/15 07:01:52;;;;;;;52.20;20.27;;;;;;;21.85;41.45;103013.59;5057466;28;20028;-70
2021/12/15 07:04:20;;;;;;;56.73;19.63;;;;;;;20.91;43.84;103020.00;5053593;28;20028;-70
2021/12/15 07:06:47;;;;;;;56.90;19.93;;;;;;;20.93;43.40;103026.16;5049197;28;20404;-70
2021/12/15 07:09:13;;;;;;;60.43;21.07;;;;;;;20.86;44.29;103024.53;5043857;28;20058;-70
2021/12/15 07:11:39;;;;;;;52.60;20.73;;;;;;;20.31;45.46;103035.19;5042385;28;20025;-70
2021/12/15 07:14:04;;;;;;;57.90;21.03;;;;;;;21.16;43.94;103039.88;5071184;28;20489;-70
2021/12/15 07:16:32;;;;;;;62.43;21.63;;;;;;;20.61;44.66;103024.94;5069709;28;20536;-70
2021/12/15 07:19:10;;;;;;;53.93;21.10;;;;;;;20.93;44.20;103031.47;5047141;28;20020;-70
2021/12/15 07:21:39;;;;;;;56.70;21.77;;;;;;;20.73;45.20;103030.06;5075600;28;20048;-69
2021/12/15 07:24:08;;;;;;;56.10;21.43;;;;;;;19.52;47.78;103035.41;5049349;28;20060;-70
2021/12/15 07:26:34;;;;;;;55.37;19.23;;;;;;;21.02;44.47;103031.31;5038650;28;20515;-70
2021/12/15 07:29:00;;;;;;;51.10;20.13;;;;;;;21.16;43.12;103034.56;5047781;28;20032;-70
2021/12/15 07:31:25;;;;;;;57.57;20.20;;;;;;;21.29;43.16;103034.31;5052550;28;20077;-70
2021/12/15 07:33:51;;;;;;;55.10;21.53;;;;;;;20.41;44.99;103034.13;5038887;28;20131;-70
2021/12/15 07:36:16;;;;;;;60.47;21.50;;;;;;;20.99;44.00;103036.66;5057094;28;20029;-70
2021/12/15 07:38:42;;;;;;;55.27;19.57;;;;;;;21.96;41.82;103047.09;5048476;28;20431;-70
2021/12/15 07:41:23;;;;;;;58.27;20.60;;;;;;;21.67;42.75;103040.66;5057409;28;20024;-70
2021/12/15 07:43:49;;;;;;;54.50;20.13;;;;;;;21.25;43.85;103037.94;5038001;28;20423;-70
2021/12/15 07:46:14;;;;;;;56.03;20.47;;;;;;;21.48;42.59;103045.44;5048122;28;20028;-70
2021/12/15 07:48:40;;;;;;;59.10;20.87;;;;;;;22.19;40.79;103034.09;5070989;28;20036;-70
2021/12/15 07:51:08;;;;;;;55.07;20.83;;;;;;;21.02;43.63;103037.50;5041975;28;20441;-70
2021/12/15 07:53:36;;;;;;;59.50;19.57;;;;;;;21.60;42.52;103049.69;5051844;28;20020;-70
2021/12/15 07:56:02;;;;;;;59.17;19.93;;;;;;;21.21;43.47;103050.41;5050406;28;20029;-70
2021/12/15 07:58:29;;;;;;;58.20;19.97;;;;;;;21.35;43.07;103047.50;5055430;28;20111;-70
2021/12/15 08:00:58;;;;;;;57.40;20.07;;;;;;;21.13;43.83;103050.59;5071447;28;20023;-70
2021/12/15 08:03:25;;;;;;;50.97;18.90;;;;;;;20.64;45.14;103046.16;5048275;28;20075;-70
2021/12/15 08:05:52;;;;;;;55.40;18.80;;;;;;;20.96;44.41;103048.22;5047206;28;20020;-70
2021/12/15 08:08:17;;;;;;;51.33;18.53;;;;;;;21.25;44.42;103060.09;5067693;28;20063;-70
2021/12/15 08:10:43;;;;;;;53.03;18.57;;;;;;;21.33;43.87;103049.31;5065241;28;20504;-70
2021/12/15 08:13:11;;;;;;;50.20;17.07;;;;;;;20.51;44.46;103056.09;5068534;28;20416;-70
2021/12/15 08:15:38;;;;;;;52.87;19.33;;;;;;;20.83;44.29;103052.91;5050737;28;20024;-70
2021/12/15 08:18:04;;;;;;;56.90;20.40;;;;;;;20.97;43.92;103043.81;5049719;28;20059;-69
2021/12/15 08:20:31;;;;;;;50.40;16.50;;;;;;;21.35;43.73;103044.84;5062984;28;20066;-70
2021/12/15 08:22:57;;;;;;;49.80;18.20;;;;;;;20.20;46.17;103050.41;5047692;28;20048;-70
2021/12/15 08:25:23;;;;;;;49.83;19.53;;;;;;;21.12;43.29;103058.59;5051741;28;20028;-70
2021/12/15 08:27:50;;;;;;;48.60;17.50;;;;;;;20.73;44.64;103056.66;5051303;28;20111;-70
2021/12/15 08:30:20;;;;;;;44.30;17.10;;;;;;;21.02;44.43;103047.25;5051042;28;20178;-70
2021/12/15 08:32:52;;;;;;;43.33;18.83;;;;;;;21.06;44.52;103059.59;5052216;28;20028;-70
2021/12/15 08:35:22;;;;;;;50.42;19.00;;;;;;;21.61;42.89;103062.06;5043087;28;20032;-70
2021/12/15 08:37:47;;;;;;;45.37;15.63;;;;;;;21.45;42.92;103072.13;5069638;28;20396;-70
2021/12/15 08:40:15;;;;;;;51.63;19.13;;;;;;;21.48;43.19;103075.59;5067660;28;20040;-70
2021/12/15 08:42:40;;;;;;;44.97;16.17;;;;;;;21.59;42.46;103071.88;5047507;28;20196;-70
2021/12/15 08:45:07;;;;;;;52.73;18.03;;;;;;;22.08;41.77;103068.13;5064605;28;20476;-70
2021/12/15 08:47:33;;;;;;;42.63;15.83;;;;;;;21.63;42.87;103071.75;5047326;28;20021;-70
2021/12/15 08:49:58;;;;;;;45.33;17.20;;;;;;;22.27;41.52;103067.66;5041579;28;20499;-70
2021/12/15 08:52:23;;;;;;;46.60;17.63;;;;;;;21.92;41.36;103074.69;5070374;28;20125;-70
2021/12/15 08:54:49;;;;;;;41.27;15.27;;;;;;;21.94;42.40;103072.88;5039661;28;20037;-70
2021/12/15 08:57:14;;;;;;;40.67;16.10;;;;;;;22.41;40.96;103070.91;5044014;28;20033;-70
2021/12/15 08:59:40;;;;;;;45.53;16.33;;;;;;;21.47;43.57;103081.84;5039850;28;20025;-70
2021/12/15 09:02:06;;;;;;;47.50;15.50;;;;;;;20.65;45.11;103077.13;5066077;28;20024;-70
2021/12/15 09:04:32;;;;;;;37.83;15.93;;;;;;;22.31;41.45;103074.66;5051410;28;20382;-70
2021/12/15 09:06:57;;;;;;;44.03;16.43;;;;;;;22.31;40.81;103074.66;5063210;28;20091;-70
2021/12/15 09:09:23;;;;;;;41.50;16.37;;;;;;;20.73;44.52;103088.53;5050544;28;20369;-68
2021/12/15 09:11:53;;;;;;;42.77;17.20;;;;;;;22.00;42.21;103086.91;5047980;28;20489;-71
2021/12/15 09:14:19;;;;;;;37.30;14.90;;;;;;;21.91;42.34;103107.56;5047805;28;20024;-68
2021/12/15 09:16:49;;;;;;;44.47;14.53;;;;;;;21.99;42.38;103092.28;5036716;28;20032;-69
2021/12/15 09:19:14;;;;;;;37.80;15.93;;;;;;;21.56;41.69;103095.88;5043883;28;20021;-69
2021/12/15 09:21:42;;;;;;;38.27;14.30;;;;;;;21.15;43.32;103096.63;5042186;28;20045;-69
2021/12/15 09:24:09;;;;;;;43.97;15.07;;;;;;;22.64;40.95;103090.75;5049383;28;20433;-69
2021/12/15 09:26:36;;;;;;;36.93;15.73;;;;;;;22.89;40.12;103085.69;5035580;28;20416;-70
2021/12/15 09:29:03;;;;;;;39.70;14.57;;;;;;;22.11;41.00;103100.00;5041075;28;20044;-69
2021/12/15 09:31:29;;;;;;;33.10;13.63;;;;;;;20.07;45.58;103109.00;5069599;28;20396;-70
2021/12/15 09:33:58;;;;;;;29.03;12.87;;;;;;;21.60;42.16;103108.22;5043550;28;20347;-69
2021/12/15 09:36:25;;;;;;;35.63;14.47;;;;;;;21.99;41.39;103105.59;5048935;28;20064;-69
2021/12/15 09:38:56;;;;;;;34.30;13.50;;;;;;;22.07;41.68;103103.63;5058245;28;20025;-69
2021/12/15 09:41:23;;;;;;;31.60;13.07;;;;;;;22.38;40.42;103107.41;5065465;28;20488;-69
2021/12/15 09:43:51;;;;;;;30.47;13.43;;;;;;;21.94;41.42;103120.78;5043482;28;20027;-69
2021/12/15 09:46:38;;;;;;;25.80;12.07;;;;;;;21.56;42.46;103117.19;5062688;28;20051;-69
2021/12/15 10:18:43;;;;;;;30.13;13.07;;;;;;;23.35;38.13;103128.94;5062866;28;20040;-69
2021/12/15 10:21:22;;;;;;;30.93;11.57;;;;;;;22.02;41.40;103132.16;5060130;28;20028;-69
2021/12/15 10:23:51;;;;;;;30.73;12.23;;;;;;;22.92;38.93;103138.06;5043891;28;20045;-69
2021/12/15 10:26:18;;;;;;;26.73;11.53;;;;;;;21.63;42.25;103140.09;5065884;28;20021;-69
2021/12/15 10:28:48;;;;;;;24.77;11.07;;;;;;;22.27;40.94;103148.47;5049454;28;20028;-69
2021/12/15 10:31:15;;;;;;;30.10;11.73;;;;;;;22.51;40.62;103152.34;5043568;28;20048;-69
2021/12/15 10:33:47;;;;;;;25.93;12.00;;;;;;;22.18;40.92;103144.19;5046933;28;20115;-68
2021/12/15 10:36:18;;;;;;;26.60;11.45;;;;;;;22.82;40.19;103140.06;5043555;28;20029;-69
2021/12/15 10:38:47;;;;;;;27.40;10.83;;;;;;;22.45;40.71;103141.88;5044658;28;20020;-69
2021/12/15 10:41:40;;;;;;;26.63;10.60;;;;;;;21.33;42.00;103134.41;5046072;28;20027;-69
2021/12/15 10:44:09;;;;;;;25.87;10.87;;;;;;;22.86;40.15;103137.31;5060164;28;20055;-69
2021/12/15 10:46:49;;;;;;;20.27;9.63;;;;;;;21.77;41.60;103147.78;5043684;28;20111;-70
2021/12/15 10:49:24;;;;;;;20.70;9.33;;;;;;;23.13;39.05;103140.16;5039683;28;20060;-69
2021/12/15 10:52:07;;;;;;;19.50;9.87;;;;;;;22.50;40.62;103145.31;5057087;28;20396;-69
2021/12/15 10:54:37;;;;;;;18.57;8.80;;;;;;;22.57;40.35;103146.00;5059087;28;20029;-70
2021/12/15 10:57:16;;;;;;;21.57;9.00;;;;;;;21.29;42.06;103140.69;5047768;28;20047;-69
2021/12/15 10:59:48;;;;;;;17.77;7.60;;;;;;;22.49;40.73;103138.22;5050992;28;20144;-70
2021/12/15 11:02:21;;;;;;;16.48;7.68;;;;;;;21.04;42.67;103141.16;5043263;28;20081;-69
2021/12/15 11:05:05;;;;;;;14.87;6.50;;;;;;;21.22;42.26;103144.38;5044286;28;20123;-69
2021/12/15 11:07:54;;;;;;;15.73;6.93;;;;;;;21.77;41.83;103143.31;5045644;28;20033;-69
2021/12/15 11:10:30;;;;;;;11.83;5.63;;;;;;;22.57;39.30;103150.47;5042513;28;20490;-69
2021/12/15 11:13:13;;;;;;;10.93;5.13;;;;;;;20.98;42.27;103141.28;5064932;28;20032;-69
2021/12/15 11:15:45;;;;;;;15.00;5.67;;;;;;;21.26;41.08;103140.75;5041682;28;20032;-69
2021/12/15 11:18:23;;;;;;;13.70;5.30;;;;;;;22.06;40.19;103141.81;5066099;28;20029;-69
2021/12/15 11:20:51;;;;;;;17.87;4.73;;;;;;;22.46;39.36;103142.72;5048904;28;20032;-69
2021/12/15 11:23:23;;;;;;;12.20;4.97;;;;;;;22.67;38.37;103128.88;5065074;28;20043;-69
2021/12/15 11:26:03;;;;;;;12.03;4.33;;;;;;;23.20;37.58;103139.13;5047854;28;20116;-69
2021/12/15 11:28:32;;;;;;;10.23;4.27;;;;;;;21.85;39.43;103141.38;5006235;28;20028;-69
2021/12/15 11:31:16;;;;;;;9.60;3.93;;;;;;;22.47;38.97;103140.03;5049351;28;20032;-69
2021/12/15 11:33:45;;;;;;;8.07;4.07;;;;;;;22.58;38.17;103142.44;5008441;28;20396;-69
2021/12/15 11:36:14;;;;;;;12.73;4.10;;;;;;;23.22;36.60;103139.06;5056086;28;20567;-70
2021/12/15 11:38:44;;;;;;;12.23;4.80;;;;;;;21.84;39.09;103139.66;5047956;28;20024;-69
2021/12/15 11:41:18;;;;;;;9.88;3.92;;;;;;;22.64;37.91;103138.72;5069059;28;20028;-70
2021/12/15 11:43:51;;;;;;;13.50;4.13;;;;;;;23.20;37.29;103136.44;5049203;28;20024;-69
2021/12/15 11:46:19;;;;;;;12.55;4.72;;;;;;;21.57;40.35;103148.16;5053542;28;20166;-70
2021/12/15 11:48:48;;;;;;;12.33;4.10;;;;;;;22.86;37.85;103142.63;5044734;28;20029;-70
2021/12/15 11:51:13;;;;;;;13.37;4.53;;;;;;;23.63;36.29;103137.03;5071595;28;20020;-69
2021/12/15 11:53:45;;;;;;;11.40;3.77;;;;;;;22.32;37.97;103137.69;5070675;28;20035;-69
2021/12/15 11:56:25;;;;;;;12.27;4.90;;;;;;;22.44;37.87;103140.09;5050924;28;20028;-69
2021/12/15 11:58:58;;;;;;;14.53;4.80;;;;;;;23.16;37.29;103134.78;5050607;28;20036;-70
2021/12/15 12:01:41;;;;;;;15.73;5.72;;;;;;;23.12;36.55;103138.44;5071461;28;20036;-72
2021/12/15 12:04:22;;;;;;;14.33;5.00;;;;;;;22.20;38.17;103137.06;5049640;28;20118;-71
2021/12/15 12:06:52;;;;;;;13.10;4.83;;;;;;;23.38;36.33;103128.81;5050066;28;20031;-71
2021/12/15 12:09:19;;;;;;;10.97;5.17;;;;;;;23.48;36.44;103134.78;5045209;28;20028;-72
2021/12/15 12:11:50;;;;;;;15.50;5.20;;;;;;;23.40;36.33;103139.47;5045059;28;20170;-72
2021/12/15 12:14:28;;;;;;;9.90;4.55;;;;;;;21.81;38.94;103141.47;5071285;28;20036;-71
2021/12/15 12:16:54;;;;;;;8.50;4.37;;;;;;;22.20;38.30;103142.41;5053419;28;20029;-71
2021/12/15 12:19:20;;;;;;;11.37;4.47;;;;;;;22.69;37.33;103139.50;5053451;28;20028;-72
2021/12/15 12:21:45;;;;;;;11.10;4.23;;;;;;;22.51;37.81;103139.03;5047344;28;20047;-71
2021/12/15 12:24:17;;;;;;;13.00;5.43;;;;;;;22.33;37.93;103132.31;5069515;28;20036;-71
2021/12/15 12:26:45;;;;;;;11.10;5.23;;;;;;;22.87;37.83;103123.06;5070720;28;20039;-71
2021/12/15 12:29:11;;;;;;;12.13;5.40;;;;;;;21.50;39.37;103129.66;5049918;28;20032;-71